sensor_id;sensor_type;location;lat;lon;timestamp;pressure;altitude;pressure_sealevel;temperature;humidity
16777;BME280;8505;49.456;8.164;2022-09-09T00:00:38;-20420.53;;;16.29;100.00
16777;BME280;8505;49.456;8.164;2022-09-09T00:03:12;-20419.63;;;16.26;100.00
16777;BME280;8505;49.456;8.164;2022-09-09T00:05:50;-20420.69;;;16.29;100.00
16777;BME280;8505;49.456;8.164;2022-09-09T00:08:31;-20421.47;;;16.32;100.00
16777;BME280;8505;49.456;8.164;2022-09-09T00:11:03;-20431.22;;;16.64;100.00
16777;BME280;8505;49.456;8.164;2022-09-09T00:13:37;-20428.47;;;16.55;100.00
16777;BME280;8505;49.456;8.164;2022-09-09T00:16:11;-20427.53;;;16.52;100.00
16777;BME280;8505;49.456;8.164;2022-09-09T00:18:51;-20429.97;;;16.60;100.00
16777;BME280;8505;49.456;8.164;2022-09-09T00:21:21;-20439.41;;;16.91;100.00
16777;BME280;8505;49.456;8.164;2022-09-09T00:24:14;-20435.31;;;16.78;100.00
16777;BME280;8505;49.456;8.164;2022-09-09T00:27:08;-20438.66;;;16.89;100.00
16777;BME280;8505;49.456;8.164;2022-09-09T00:29:53;-20440.34;;;16.95;100.00
16777;BME280;8505;49.456;8.164;2022-09-09T00:32:28;-20438.66;;;16.89;100.00
16777;BME280;8505;49.456;8.164;2022-09-09T00:35:00;-20445.19;;;17.11;100.00
16777;BME280;8505;49.456;8.164;2022-09-09T00:37:30;-20441.41;;;16.98;100.00
16777;BME280;8505;49.456;8.164;2022-09-09T00:40:18;-20438.81;;;16.89;100.00
16777;BME280;8505;49.456;8.164;2022-09-09T00:42:59;-20440.03;;;16.93;100.00
16777;BME280;8505;49.456;8.164;2022-09-09T00:45:47;-20438.66;;;16.89;100.00
16777;BME280;8505;49.456;8.164;2022-09-09T00:48:29;-20438.06;;;16.87;100.00
16777;BME280;8505;49.456;8.164;2022-09-09T00:51:06;-20446.88;;;17.16;100.00
16777;BME280;8505;49.456;8.164;2022-09-09T00:53:51;-20455.84;;;17.46;100.00
16777;BME280;8505;49.456;8.164;2022-09-09T00:56:30;-20463.00;;;17.70;100.00
16777;BME280;8505;49.456;8.164;2022-09-09T00:59:14;-20465.75;;;17.79;100.00
16777;BME280;8505;49.456;8.164;2022-09-09T01:01:44;-20464.84;;;17.76;100.00
16777;BME280;8505;49.456;8.164;2022-09-09T01:04:16;-20464.69;;;17.76;100.00
16777;BME280;8505;49.456;8.164;2022-09-09T01:06:48;-20467.13;;;17.84;100.00
16777;BME280;8505;49.456;8.164;2022-09-09T01:09:42;-20467.72;;;17.86;100.00
16777;BME280;8505;49.456;8.164;2022-09-09T01:12:32;-20468.63;;;17.89;100.00
16777;BME280;8505;49.456;8.164;2022-09-09T01:15:12;-20469.69;;;17.92;100.00
16777;BME280;8505;49.456;8.164;2022-09-09T01:17:53;-20469.25;;;17.91;100.00
16777;BME280;8505;49.456;8.164;2022-09-09T01:20:27;-20469.25;;;17.91;100.00
16777;BME280;8505;49.456;8.164;2022-09-09T01:23:19;-20471.38;;;17.98;100.00
16777;BME280;8505;49.456;8.164;2022-09-09T01:26:12;-20471.97;;;18.00;100.00
16777;BME280;8505;49.456;8.164;2022-09-09T01:28:45;-20472.75;;;18.02;100.00
16777;BME280;8505;49.456;8.164;2022-09-09T01:31:26;-20472.28;;;18.01;100.00
16777;BME280;8505;49.456;8.164;2022-09-09T01:33:57;-20471.81;;;17.99;100.00
16777;BME280;8505;49.456;8.164;2022-09-09T01:36:29;-20471.97;;;18.00;100.00
16777;BME280;8505;49.456;8.164;2022-09-09T01:38:59;-20472.13;;;18.00;100.00
16777;BME280;8505;49.456;8.164;2022-09-09T01:41:35;-20471.53;;;17.98;100.00
16777;BME280;8505;49.456;8.164;2022-09-09T01:44:15;-20470.00;;;17.93;100.00
16777;BME280;8505;49.456;8.164;2022-09-09T01:46:48;-20470.16;;;17.94;100.00
16777;BME280;8505;49.456;8.164;2022-09-09T01:53:03;-20469.25;;;17.91;100.00
16777;BME280;8505;49.456;8.164;2022-09-09T01:56:13;-20468.94;;;17.90;100.00
16777;BME280;8505;49.456;8.164;2022-09-09T01:59:22;-20469.25;;;17.91;100.00
16777;BME280;8505;49.456;8.164;2022-09-09T02:02:32;-20470.47;;;17.95;100.00
16777;BME280;8505;49.456;8.164;2022-09-09T02:05:17;-20471.38;;;17.98;100.00
16777;BME280;8505;49.456;8.164;2022-09-09T02:08:03;-20471.69;;;17.99;100.00
16777;BME280;8505;49.456;8.164;2022-09-09T02:10:45;-20472.28;;;18.01;100.00
16777;BME280;8505;49.456;8.164;2022-09-09T02:13:22;-20471.97;;;18.00;100.00
16777;BME280;8505;49.456;8.164;2022-09-09T02:15:56;-20471.97;;;18.00;100.00
16777;BME280;8505;49.456;8.164;2022-09-09T02:18:47;-20469.53;;;17.92;100.00
16777;BME280;8505;49.456;8.164;2022-09-09T02:21:52;-20468.03;;;17.87;100.00
16777;BME280;8505;49.456;8.164;2022-09-09T02:24:22;-20467.56;;;17.85;100.00
16777;BME280;8505;49.456;8.164;2022-09-09T02:26:53;-20466.97;;;17.83;100.00
16777;BME280;8505;49.456;8.164;2022-09-09T02:29:24;-20466.81;;;17.83;100.00
16777;BME280;8505;49.456;8.164;2022-09-09T02:32:00;-20468.03;;;17.87;100.00
16777;BME280;8505;49.456;8.164;2022-09-09T02:34:35;-20468.34;;;17.88;100.00
16777;BME280;8505;49.456;8.164;2022-09-09T02:37:08;-20468.19;;;17.87;100.00
16777;BME280;8505;49.456;8.164;2022-09-09T02:40:02;-20465.91;;;17.80;100.00
16777;BME280;8505;49.456;8.164;2022-09-09T02:42:38;-20464.97;;;17.77;100.00
16777;BME280;8505;49.456;8.164;2022-09-09T02:45:19;-20464.84;;;17.76;100.00
16777;BME280;8505;49.456;8.164;2022-09-09T02:48:32;-20462.72;;;17.69;100.00
16777;BME280;8505;49.456;8.164;2022-09-09T02:51:14;-20462.72;;;17.69;100.00
16777;BME280;8505;49.456;8.164;2022-09-09T02:53:59;-20460.13;;;17.60;100.00
16777;BME280;8505;49.456;8.164;2022-09-09T02:57:12;-20457.97;;;17.53;100.00
16777;BME280;8505;49.456;8.164;2022-09-09T03:03:15;-20456.31;;;17.48;100.00
16777;BME280;8505;49.456;8.164;2022-09-09T03:06:02;-20452.97;;;17.37;100.00
16777;BME280;8505;49.456;8.164;2022-09-09T03:08:36;-20453.72;;;17.39;100.00
16777;BME280;8505;49.456;8.164;2022-09-09T03:11:26;-20454.34;;;17.41;100.00
16777;BME280;8505;49.456;8.164;2022-09-09T03:14:21;-20453.13;;;17.37;100.00
16777;BME280;8505;49.456;8.164;2022-09-09T03:16:52;-20451.91;;;17.33;100.00
16777;BME280;8505;49.456;8.164;2022-09-09T03:19:46;-20452.66;;;17.36;100.00
16777;BME280;8505;49.456;8.164;2022-09-09T03:25:22;-20449.91;;;17.26;100.00
16777;BME280;8505;49.456;8.164;2022-09-09T03:28:13;-20447.19;;;17.17;100.00
16777;BME280;8505;49.456;8.164;2022-09-09T03:30:41;-20446.41;;;17.15;100.00
16777;BME280;8505;49.456;8.164;2022-09-09T03:33:09;-20444.00;;;17.07;100.00
16777;BME280;8505;49.456;8.164;2022-09-09T03:35:45;-20443.38;;;17.05;100.00
16777;BME280;8505;49.456;8.164;2022-09-09T03:38:16;-20440.94;;;16.97;100.00
16777;BME280;8505;49.456;8.164;2022-09-09T03:40:50;-20438.66;;;16.89;100.00
16777;BME280;8505;49.456;8.164;2022-09-09T03:43:21;-20438.66;;;16.89;100.00
16777;BME280;8505;49.456;8.164;2022-09-09T03:45:49;-20439.72;;;16.92;100.00
16777;BME280;8505;49.456;8.164;2022-09-09T03:48:19;-20438.81;;;16.89;100.00
16777;BME280;8505;49.456;8.164;2022-09-09T03:50:53;-20440.34;;;16.95;100.00
16777;BME280;8505;49.456;8.164;2022-09-09T03:53:41;-20439.41;;;16.91;100.00
16777;BME280;8505;49.456;8.164;2022-09-09T03:56:12;-20439.56;;;16.92;100.00
16777;BME280;8505;49.456;8.164;2022-09-09T03:58:46;-20439.13;;;16.90;100.00
16777;BME280;8505;49.456;8.164;2022-09-09T04:01:15;-20439.41;;;16.91;100.00
16777;BME280;8505;49.456;8.164;2022-09-09T04:03:44;-20440.19;;;16.94;100.00
16777;BME280;8505;49.456;8.164;2022-09-09T04:06:14;-20441.88;;;17.00;100.00
16777;BME280;8505;49.456;8.164;2022-09-09T04:08:44;-20443.06;;;17.04;100.00
16777;BME280;8505;49.456;8.164;2022-09-09T04:11:16;-20444.28;;;17.08;100.00
16777;BME280;8505;49.456;8.164;2022-09-09T04:13:44;-20443.22;;;17.04;100.00
16777;BME280;8505;49.456;8.164;2022-09-09T04:16:12;-20442.63;;;17.02;100.00
16777;BME280;8505;49.456;8.164;2022-09-09T04:18:43;-20445.19;;;17.11;100.00
16777;BME280;8505;49.456;8.164;2022-09-09T04:21:11;-20444.75;;;17.09;100.00
16777;BME280;8505;49.456;8.164;2022-09-09T04:23:47;-20445.19;;;17.11;100.00
16777;BME280;8505;49.456;8.164;2022-09-09T04:26:18;-20445.19;;;17.11;100.00
16777;BME280;8505;49.456;8.164;2022-09-09T04:28:49;-20446.56;;;17.15;100.00
16777;BME280;8505;49.456;8.164;2022-09-09T04:31:18;-20449.78;;;17.26;100.00
16777;BME280;8505;49.456;8.164;2022-09-09T04:33:56;-20449.31;;;17.24;100.00
16777;BME280;8505;49.456;8.164;2022-09-09T04:36:26;-20450.53;;;17.28;100.00
16777;BME280;8505;49.456;8.164;2022-09-09T04:39:00;-20449.63;;;17.25;100.00
16777;BME280;8505;49.456;8.164;2022-09-09T04:45:24;-20442.47;;;17.02;100.00
16777;BME280;8505;49.456;8.164;2022-09-09T04:48:33;-20443.69;;;17.06;100.00
16777;BME280;8505;49.456;8.164;2022-09-09T04:51:03;-20441.25;;;16.98;100.00
16777;BME280;8505;49.456;8.164;2022-09-09T04:53:32;-20440.34;;;16.95;100.00
16777;BME280;8505;49.456;8.164;2022-09-09T04:56:51;-20440.34;;;16.95;100.00
16777;BME280;8505;49.456;8.164;2022-09-09T04:59:35;-20439.72;;;16.92;100.00
16777;BME280;8505;49.456;8.164;2022-09-09T05:02:08;-20440.50;;;16.95;100.00
16777;BME280;8505;49.456;8.164;2022-09-09T05:04:36;-20439.41;;;16.91;100.00
16777;BME280;8505;49.456;8.164;2022-09-09T05:07:04;-20435.78;;;16.79;100.00
16777;BME280;8505;49.456;8.164;2022-09-09T05:09:33;-20436.69;;;16.82;100.00
16777;BME280;8505;49.456;8.164;2022-09-09T05:12:02;-20436.69;;;16.82;100.00
16777;BME280;8505;49.456;8.164;2022-09-09T05:14:32;-20435.31;;;16.78;100.00
16777;BME280;8505;49.456;8.164;2022-09-09T05:17:07;-20435.63;;;16.79;100.00
16777;BME280;8505;49.456;8.164;2022-09-09T05:19:42;-20436.38;;;16.81;100.00
16777;BME280;8505;49.456;8.164;2022-09-09T05:22:19;-20435.78;;;16.79;100.00
16777;BME280;8505;49.456;8.164;2022-09-09T05:24:49;-20436.69;;;16.82;100.00
16777;BME280;8505;49.456;8.164;2022-09-09T05:27:19;-20437.91;;;16.86;100.00
16777;BME280;8505;49.456;8.164;2022-09-09T05:29:47;-20438.50;;;16.88;100.00
16777;BME280;8505;49.456;8.164;2022-09-09T05:32:16;-20439.41;;;16.91;100.00
16777;BME280;8505;49.456;8.164;2022-09-09T05:34:43;-20437.28;;;16.84;100.00
16777;BME280;8505;49.456;8.164;2022-09-09T05:37:11;-20439.72;;;16.92;100.00
16777;BME280;8505;49.456;8.164;2022-09-09T05:39:39;-20440.50;;;16.95;100.00
16777;BME280;8505;49.456;8.164;2022-09-09T05:42:07;-20440.34;;;16.95;100.00
16777;BME280;8505;49.456;8.164;2022-09-09T05:44:36;-20441.88;;;17.00;100.00
16777;BME280;8505;49.456;8.164;2022-09-09T05:47:05;-20443.69;;;17.06;100.00
16777;BME280;8505;49.456;8.164;2022-09-09T05:49:36;-20446.88;;;17.16;100.00
16777;BME280;8505;49.456;8.164;2022-09-09T05:52:04;-20454.34;;;17.41;100.00
16777;BME280;8505;49.456;8.164;2022-09-09T05:54:33;-20462.25;;;17.68;100.00
16777;BME280;8505;49.456;8.164;2022-09-09T05:57:00;-20462.09;;;17.67;100.00
16777;BME280;8505;49.456;8.164;2022-09-09T05:59:28;-20469.38;;;17.91;100.00
16777;BME280;8505;49.456;8.164;2022-09-09T06:01:57;-20477.31;;;18.18;100.00
16777;BME280;8505;49.456;8.164;2022-09-09T06:04:25;-20483.22;;;18.37;100.00
16777;BME280;8505;49.456;8.164;2022-09-09T06:06:53;-20480.94;;;18.30;100.00
16777;BME280;8505;49.456;8.164;2022-09-09T06:09:22;-20484.75;;;18.43;100.00
16777;BME280;8505;49.456;8.164;2022-09-09T06:11:57;-20494.78;;;18.76;100.00
16777;BME280;8505;49.456;8.164;2022-09-09T06:14:25;-20497.81;;;18.86;100.00
16777;BME280;8505;49.456;8.164;2022-09-09T06:16:53;-20510.28;;;19.28;100.00
16777;BME280;8505;49.456;8.164;2022-09-09T06:19:22;-20505.88;;;19.13;98.72
16777;BME280;8505;49.456;8.164;2022-09-09T06:21:53;-20495.09;;;18.77;100.00
16777;BME280;8505;49.456;8.164;2022-09-09T06:24:21;-20507.84;;;19.20;100.00
16777;BME280;8505;49.456;8.164;2022-09-09T06:26:50;-20522.44;;;19.68;96.14
16777;BME280;8505;49.456;8.164;2022-09-09T06:29:18;-20543.97;;;20.40;90.98
16777;BME280;8505;49.456;8.164;2022-09-09T06:31:46;-20541.25;;;20.31;91.55
16777;BME280;8505;49.456;8.164;2022-09-09T06:34:14;-20564.75;;;21.10;88.04
16777;BME280;8505;49.456;8.164;2022-09-09T06:36:44;-20561.28;;;20.98;84.88
16777;BME280;8505;49.456;8.164;2022-09-09T06:39:12;-20553.53;;;20.72;86.01
16777;BME280;8505;49.456;8.164;2022-09-09T06:41:42;-20543.06;;;20.37;87.11
16777;BME280;8505;49.456;8.164;2022-09-09T06:44:10;-20547.63;;;20.52;85.82
16777;BME280;8505;49.456;8.164;2022-09-09T06:46:39;-20532.59;;;20.02;87.98
16777;BME280;8505;49.456;8.164;2022-09-09T06:49:07;-20540.03;;;20.27;88.01
16777;BME280;8505;49.456;8.164;2022-09-09T06:51:37;-20542.75;;;20.36;86.93
16777;BME280;8505;49.456;8.164;2022-09-09T06:54:11;-20548.22;;;20.54;86.08
16777;BME280;8505;49.456;8.164;2022-09-09T06:56:40;-20542.75;;;20.36;89.74
16777;BME280;8505;49.456;8.164;2022-09-09T06:59:10;-20539.72;;;20.26;87.58
16777;BME280;8505;49.456;8.164;2022-09-09T07:01:39;-20545.66;;;20.46;86.33
16777;BME280;8505;49.456;8.164;2022-09-09T07:04:08;-20553.25;;;20.71;84.82
16777;BME280;8505;49.456;8.164;2022-09-09T07:06:38;-20537.91;;;20.20;86.48
16777;BME280;8505;49.456;8.164;2022-09-09T07:09:09;-20524.09;;;19.74;90.26
16777;BME280;8505;49.456;8.164;2022-09-09T07:11:40;-20536.25;;;20.14;89.42
16777;BME280;8505;49.456;8.164;2022-09-09T07:14:09;-20528.50;;;19.89;89.78
16777;BME280;8505;49.456;8.164;2022-09-09T07:16:39;-20516.03;;;19.47;93.54
16777;BME280;8505;49.456;8.164;2022-09-09T07:19:07;-20523.50;;;19.72;92.55
16777;BME280;8505;49.456;8.164;2022-09-09T07:21:35;-20517.28;;;19.51;93.51
16777;BME280;8505;49.456;8.164;2022-09-09T07:24:03;-20525.47;;;19.78;92.39
16777;BME280;8505;49.456;8.164;2022-09-09T07:26:33;-20529.09;;;19.91;91.81
16777;BME280;8505;49.456;8.164;2022-09-09T07:29:07;-20517.28;;;19.51;94.81
16777;BME280;8505;49.456;8.164;2022-09-09T07:31:46;-20539.72;;;20.26;90.27
16777;BME280;8505;49.456;8.164;2022-09-09T07:34:15;-20548.53;;;20.55;88.53
16777;BME280;8505;49.456;8.164;2022-09-09T07:36:42;-20542.63;;;20.36;88.38
16777;BME280;8505;49.456;8.164;2022-09-09T07:39:12;-20533.06;;;20.04;89.83
16777;BME280;8505;49.456;8.164;2022-09-09T07:41:42;-20530.31;;;19.95;91.02
16777;BME280;8505;49.456;8.164;2022-09-09T07:44:13;-20525.47;;;19.78;92.29
16777;BME280;8505;49.456;8.164;2022-09-09T07:46:44;-20525.75;;;19.79;92.68
16777;BME280;8505;49.456;8.164;2022-09-09T07:49:13;-20511.50;;;19.32;95.20
16777;BME280;8505;49.456;8.164;2022-09-09T07:51:42;-20507.84;;;19.20;97.09
16777;BME280;8505;49.456;8.164;2022-09-09T07:54:16;-20506.47;;;19.15;98.65
16777;BME280;8505;49.456;8.164;2022-09-09T07:56:46;-20503.91;;;19.06;99.96
16777;BME280;8505;49.456;8.164;2022-09-09T07:59:17;-20509.06;;;19.24;98.49
16777;BME280;8505;49.456;8.164;2022-09-09T08:02:14;-20524.09;;;19.74;96.81
16777;BME280;8505;49.456;8.164;2022-09-09T08:04:42;-20529.09;;;19.91;95.73
16777;BME280;8505;49.456;8.164;2022-09-09T08:07:10;-20530.31;;;19.95;96.37
16777;BME280;8505;49.456;8.164;2022-09-09T08:09:38;-20533.06;;;20.04;95.51
16777;BME280;8505;49.456;8.164;2022-09-09T08:12:18;-20530.63;;;19.96;96.36
16777;BME280;8505;49.456;8.164;2022-09-09T08:14:58;-20527.44;;;19.85;97.23
16777;BME280;8505;49.456;8.164;2022-09-09T08:17:49;-20525.47;;;19.78;98.11
16777;BME280;8505;49.456;8.164;2022-09-09T08:20:16;-20523.94;;;19.73;99.96
16777;BME280;8505;49.456;8.164;2022-09-09T08:22:44;-20553.53;;;20.72;92.96
16777;BME280;8505;49.456;8.164;2022-09-09T08:25:12;-20563.69;;;21.06;87.10
16777;BME280;8505;49.456;8.164;2022-09-09T08:27:40;-20574.94;;;21.44;84.70
16777;BME280;8505;49.456;8.164;2022-09-09T08:30:11;-20565.53;;;21.12;84.18
16777;BME280;8505;49.456;8.164;2022-09-09T08:32:39;-20596.28;;;22.15;76.78
16777;BME280;8505;49.456;8.164;2022-09-09T08:35:11;-20620.69;;;22.97;72.38
16777;BME280;8505;49.456;8.164;2022-09-09T08:37:42;-20609.16;;;22.58;73.59
16777;BME280;8505;49.456;8.164;2022-09-09T08:40:18;-20598.25;;;22.22;73.29
16777;BME280;8505;49.456;8.164;2022-09-09T08:42:50;-20589.78;;;21.93;77.06
16777;BME280;8505;49.456;8.164;2022-09-09T08:45:33;-20575.69;;;21.46;79.38
16777;BME280;8505;49.456;8.164;2022-09-09T08:48:16;-20562.19;;;21.01;83.96
16777;BME280;8505;49.456;8.164;2022-09-09T08:50:54;-20557.94;;;20.87;86.52
16777;BME280;8505;49.456;8.164;2022-09-09T08:53:37;-20559.91;;;20.93;87.71
16777;BME280;8505;49.456;8.164;2022-09-09T08:56:12;-20573.09;;;21.38;83.24
16777;BME280;8505;49.456;8.164;2022-09-09T08:58:45;-20553.25;;;20.71;86.32
16777;BME280;8505;49.456;8.164;2022-09-09T09:01:40;-20582.19;;;21.68;79.98
16777;BME280;8505;49.456;8.164;2022-09-09T09:04:27;-20588.56;;;21.89;76.95
16777;BME280;8505;49.456;8.164;2022-09-09T09:07:27;-20577.97;;;21.54;79.80
16777;BME280;8505;49.456;8.164;2022-09-09T09:10:34;-20573.41;;;21.39;80.82
16777;BME280;8505;49.456;8.164;2022-09-09T09:13:41;-20567.34;;;21.18;81.68
16777;BME280;8505;49.456;8.164;2022-09-09T09:16:20;-20596.16;;;22.15;74.25
16777;BME280;8505;49.456;8.164;2022-09-09T09:19:10;-20588.25;;;21.88;75.99
16777;BME280;8505;49.456;8.164;2022-09-09T09:21:42;-20599.94;;;22.27;74.16
16777;BME280;8505;49.456;8.164;2022-09-09T09:24:16;-20584.63;;;21.76;74.84
16777;BME280;8505;49.456;8.164;2022-09-09T09:27:10;-20570.22;;;21.28;78.09
16777;BME280;8505;49.456;8.164;2022-09-09T09:30:13;-20569.00;;;21.24;78.84
16777;BME280;8505;49.456;8.164;2022-09-09T09:32:58;-20578.25;;;21.55;78.00
16777;BME280;8505;49.456;8.164;2022-09-09T09:35:30;-20582.66;;;21.70;76.95
16777;BME280;8505;49.456;8.164;2022-09-09T09:38:35;-20585.97;;;21.81;74.16
16777;BME280;8505;49.456;8.164;2022-09-09T09:41:35;-20617.03;;;22.85;68.43
16777;BME280;8505;49.456;8.164;2022-09-09T09:44:23;-20584.31;;;21.75;70.14
16777;BME280;8505;49.456;8.164;2022-09-09T09:46:52;-20576.44;;;21.49;73.01
16777;BME280;8505;49.456;8.164;2022-09-09T09:49:29;-20584.78;;;21.77;70.78
16777;BME280;8505;49.456;8.164;2022-09-09T09:52:32;-20594.31;;;22.09;69.55
16777;BME280;8505;49.456;8.164;2022-09-09T09:55:25;-20591.91;;;22.00;70.18
16777;BME280;8505;49.456;8.164;2022-09-09T09:58:58;-20623.25;;;23.05;64.36
16777;BME280;8505;49.456;8.164;2022-09-09T10:02:11;-20673.03;;;24.72;59.17
16777;BME280;8505;49.456;8.164;2022-09-09T10:04:42;-20707.59;;;25.88;52.11
16777;BME280;8505;49.456;8.164;2022-09-09T10:07:22;-20697.03;;;25.53;52.93
16777;BME280;8505;49.456;8.164;2022-09-09T10:10:13;-20683.00;;;25.06;54.27
16777;BME280;8505;49.456;8.164;2022-09-09T10:12:53;-20675.13;;;24.79;54.50
16777;BME280;8505;49.456;8.164;2022-09-09T10:15:38;-20659.72;;;24.28;54.32
16777;BME280;8505;49.456;8.164;2022-09-09T10:18:34;-20641.09;;;23.65;56.76
16777;BME280;8505;49.456;8.164;2022-09-09T10:22:11;-20658.81;;;24.25;56.80
16777;BME280;8505;49.456;8.164;2022-09-09T10:28:37;-20734.00;;;26.77;45.70
16777;BME280;8505;49.456;8.164;2022-09-09T10:31:25;-20680.72;;;24.98;50.36
16777;BME280;8505;49.456;8.164;2022-09-09T10:34:05;-20687.81;;;25.22;49.59
16777;BME280;8505;49.456;8.164;2022-09-09T10:36:45;-20709.13;;;25.93;48.82
16777;BME280;8505;49.456;8.164;2022-09-09T10:39:22;-20687.38;;;25.20;48.64
16777;BME280;8505;49.456;8.164;2022-09-09T10:42:05;-20679.66;;;24.94;49.85
16777;BME280;8505;49.456;8.164;2022-09-09T10:44:56;-20680.56;;;24.98;49.68
16777;BME280;8505;49.456;8.164;2022-09-09T10:47:43;-20643.06;;;23.72;52.52
16777;BME280;8505;49.456;8.164;2022-09-09T10:50:35;-20608.72;;;22.57;54.95
16777;BME280;8505;49.456;8.164;2022-09-09T10:53:35;-20609.91;;;22.61;56.28
16777;BME280;8505;49.456;8.164;2022-09-09T10:56:22;-20598.25;;;22.22;58.25
16777;BME280;8505;49.456;8.164;2022-09-09T10:59:07;-20608.56;;;22.56;58.09
16777;BME280;8505;49.456;8.164;2022-09-09T11:01:51;-20607.03;;;22.51;59.24
16777;BME280;8505;49.456;8.164;2022-09-09T11:04:22;-20589.47;;;21.92;60.53
16777;BME280;8505;49.456;8.164;2022-09-09T11:06:54;-20596.28;;;22.15;60.73
16777;BME280;8505;49.456;8.164;2022-09-09T11:09:40;-20595.22;;;22.12;61.98
16777;BME280;8505;49.456;8.164;2022-09-09T11:12:18;-20595.22;;;22.12;60.71
16777;BME280;8505;49.456;8.164;2022-09-09T11:19:16;-20569.63;;;21.26;73.04
16777;BME280;8505;49.456;8.164;2022-09-09T11:21:55;-20557.47;;;20.85;75.63
16777;BME280;8505;49.456;8.164;2022-09-09T11:24:47;-20552.16;;;20.68;76.68
16777;BME280;8505;49.456;8.164;2022-09-09T11:28:25;-20555.50;;;20.79;84.13
16777;BME280;8505;49.456;8.164;2022-09-09T11:32:39;-20558.09;;;20.87;88.46
16777;BME280;8505;49.456;8.164;2022-09-09T11:35:28;-20539.88;;;20.27;92.77
16777;BME280;8505;49.456;8.164;2022-09-09T11:45:15;-20532.28;;;20.01;100.00
16777;BME280;8505;49.456;8.164;2022-09-09T11:49:00;-20516.97;;;19.50;100.00
16777;BME280;8505;49.456;8.164;2022-09-09T12:00:45;-20512.09;;;19.34;100.00
16777;BME280;8505;49.456;8.164;2022-09-09T12:04:54;-20546.56;;;20.49;96.81
16777;BME280;8505;49.456;8.164;2022-09-09T15:16:47;-20516.34;;;19.48;89.80
16777;BME280;8505;49.456;8.164;2022-09-09T15:19:16;-20509.38;;;19.25;90.40
16777;BME280;8505;49.456;8.164;2022-09-09T15:21:44;-20509.22;;;19.24;91.36
16777;BME280;8505;49.456;8.164;2022-09-09T15:24:12;-20509.66;;;19.26;88.42
16777;BME280;8505;49.456;8.164;2022-09-09T15:26:40;-20512.84;;;19.36;87.08
16777;BME280;8505;49.456;8.164;2022-09-09T15:29:08;-20523.34;;;19.71;85.71
16777;BME280;8505;49.456;8.164;2022-09-09T15:31:36;-20531.53;;;19.99;82.70
16777;BME280;8505;49.456;8.164;2022-09-09T15:34:06;-20547.00;;;20.50;79.60
16777;BME280;8505;49.456;8.164;2022-09-09T15:36:36;-20555.97;;;20.80;77.24
16777;BME280;8505;49.456;8.164;2022-09-09T15:39:06;-20552.47;;;20.69;76.55
16777;BME280;8505;49.456;8.164;2022-09-09T15:41:36;-20553.09;;;20.71;75.97
16777;BME280;8505;49.456;8.164;2022-09-09T15:44:04;-20556.13;;;20.81;75.17
16777;BME280;8505;49.456;8.164;2022-09-09T15:46:38;-20557.34;;;20.85;74.62
16777;BME280;8505;49.456;8.164;2022-09-09T15:49:21;-20557.63;;;20.86;74.54
16777;BME280;8505;49.456;8.164;2022-09-09T15:52:09;-20547.94;;;20.53;76.96
16777;BME280;8505;49.456;8.164;2022-09-09T15:54:38;-20546.72;;;20.49;77.98
16777;BME280;8505;49.456;8.164;2022-09-09T15:57:14;-20542.00;;;20.34;79.70
16777;BME280;8505;49.456;8.164;2022-09-09T15:59:42;-20535.19;;;20.11;81.39
16777;BME280;8505;49.456;8.164;2022-09-09T16:02:11;-20534.88;;;20.10;82.22
16777;BME280;8505;49.456;8.164;2022-09-09T16:04:41;-20523.94;;;19.73;85.20
16777;BME280;8505;49.456;8.164;2022-09-09T16:07:11;-20520.31;;;19.61;86.65
16777;BME280;8505;49.456;8.164;2022-09-09T16:09:39;-20517.13;;;19.51;88.21
16777;BME280;8505;49.456;8.164;2022-09-09T16:12:09;-20514.53;;;19.42;89.19
16777;BME280;8505;49.456;8.164;2022-09-09T16:14:39;-20513.00;;;19.37;90.02
16777;BME280;8505;49.456;8.164;2022-09-09T16:17:10;-20517.28;;;19.51;90.18
16777;BME280;8505;49.456;8.164;2022-09-09T16:19:51;-20517.28;;;19.51;90.06
16777;BME280;8505;49.456;8.164;2022-09-09T16:22:50;-20517.72;;;19.53;90.38
16777;BME280;8505;49.456;8.164;2022-09-09T16:25:20;-20516.66;;;19.49;90.53
16777;BME280;8505;49.456;8.164;2022-09-09T16:27:48;-20514.53;;;19.42;91.26
16777;BME280;8505;49.456;8.164;2022-09-09T16:30:16;-20516.97;;;19.50;91.29
16777;BME280;8505;49.456;8.164;2022-09-09T16:32:46;-20518.19;;;19.54;91.55
16777;BME280;8505;49.456;8.164;2022-09-09T16:35:17;-20514.84;;;19.43;92.19
16777;BME280;8505;49.456;8.164;2022-09-09T16:38:00;-20513.31;;;19.38;92.86
16777;BME280;8505;49.456;8.164;2022-09-09T16:40:33;-20514.06;;;19.40;92.87
16777;BME280;8505;49.456;8.164;2022-09-09T16:43:01;-20514.84;;;19.43;93.47
16777;BME280;8505;49.456;8.164;2022-09-09T16:45:34;-20518.78;;;19.56;92.89
16777;BME280;8505;49.456;8.164;2022-09-09T16:48:02;-20524.09;;;19.74;91.50
16777;BME280;8505;49.456;8.164;2022-09-09T16:50:32;-20520.47;;;19.62;91.92
16777;BME280;8505;49.456;8.164;2022-09-09T16:53:03;-20521.50;;;19.65;92.20
16777;BME280;8505;49.456;8.164;2022-09-09T16:55:50;-20523.66;;;19.72;92.01
16777;BME280;8505;49.456;8.164;2022-09-09T16:58:18;-20524.84;;;19.76;92.62
16777;BME280;8505;49.456;8.164;2022-09-09T17:00:50;-20526.38;;;19.81;92.66
16777;BME280;8505;49.456;8.164;2022-09-09T17:03:46;-20528.34;;;19.88;91.06
16777;BME280;8505;49.456;8.164;2022-09-09T17:06:19;-20528.81;;;19.90;91.77
16777;BME280;8505;49.456;8.164;2022-09-09T17:09:11;-20527.44;;;19.85;91.82
16777;BME280;8505;49.456;8.164;2022-09-09T17:11:39;-20516.66;;;19.49;94.73
16777;BME280;8505;49.456;8.164;2022-09-09T17:14:10;-20511.50;;;19.32;96.90
16777;BME280;8505;49.456;8.164;2022-09-09T17:16:45;-20506.03;;;19.13;100.00
16777;BME280;8505;49.456;8.164;2022-09-09T17:19:17;-20485.97;;;18.47;85.47
16777;BME280;8505;49.456;8.164;2022-09-09T17:21:46;-20473.50;;;18.05;92.57
16777;BME280;8505;49.456;8.164;2022-09-09T17:24:35;-20463.75;;;17.73;93.12
16777;BME280;8505;49.456;8.164;2022-09-09T17:27:05;-20455.84;;;17.46;97.40
16777;BME280;8505;49.456;8.164;2022-09-09T17:29:33;-20449.16;;;17.24;100.00
16777;BME280;8505;49.456;8.164;2022-09-09T17:32:03;-20446.56;;;17.15;100.00
16777;BME280;8505;49.456;8.164;2022-09-09T17:34:35;-20438.81;;;16.89;100.00
16777;BME280;8505;49.456;8.164;2022-09-09T17:37:06;-20433.78;;;16.73;100.00
16777;BME280;8505;49.456;8.164;2022-09-09T17:39:37;-20424.34;;;16.41;100.00